createdAt,value
2023-03-06T11:14:03.978Z,35.15
2023-03-06T11:16:08.513Z,34.83
2023-03-06T11:18:12.872Z,34.42
2023-03-06T11:20:17.208Z,34.16
2023-03-06T11:22:21.705Z,34.05
2023-03-06T11:24:26.118Z,33.77
2023-03-06T11:26:30.520Z,33.56
2023-03-06T11:28:34.880Z,33.32
2023-03-06T11:30:39.245Z,33.22
2023-03-06T11:32:43.692Z,33.26
2023-03-06T11:34:51.623Z,33.21
2023-03-06T11:36:56.006Z,33.27
2023-03-06T11:39:00.377Z,33.19
2023-03-06T11:41:04.742Z,33.29
2023-03-06T11:43:09.077Z,33.24
2023-03-06T11:45:13.453Z,33.48
2023-03-06T11:47:17.806Z,33.33
2023-03-06T11:49:22.158Z,33.1
2023-03-06T11:51:26.550Z,33.13
2023-03-06T11:53:30.888Z,33.19
2023-03-06T11:55:35.227Z,33.06
2023-03-06T11:57:39.584Z,33.37
2023-03-06T11:59:43.933Z,33.3
2023-03-06T12:01:48.466Z,33.19
2023-03-06T12:03:52.900Z,33.1
2023-03-06T12:05:57.295Z,33.06
2023-03-06T12:08:01.622Z,33.09
2023-03-06T12:10:06.996Z,33.11
2023-03-06T12:12:11.334Z,33.05
2023-03-06T12:14:15.731Z,33.09
2023-03-06T12:16:20.307Z,33.22
2023-03-06T12:18:24.714Z,33.21
2023-03-06T12:20:29.065Z,33.22
2023-03-06T12:22:33.455Z,33.19
2023-03-06T12:24:37.820Z,33.11
2023-03-06T12:26:42.278Z,33.07
2023-03-06T12:28:48.453Z,33.06
2023-03-06T12:30:52.772Z,33.01
2023-03-06T12:32:57.157Z,33.06
2023-03-06T12:35:02.427Z,33.11
2023-03-06T12:37:07.498Z,33.01
2023-03-06T12:39:11.855Z,33.03
2023-03-06T12:41:16.345Z,33.08
2023-03-06T12:43:20.835Z,33.13
2023-03-06T12:45:25.298Z,33.16
2023-03-06T12:47:29.639Z,33.25
2023-03-06T12:49:35.519Z,33.26
2023-03-06T12:51:39.973Z,33.27
2023-03-06T12:53:44.339Z,33.31
2023-03-06T12:55:48.987Z,33.32
2023-03-06T12:57:53.335Z,33.17
2023-03-06T12:59:57.725Z,33.19
2023-03-06T13:02:02.263Z,33.31
2023-03-06T13:04:06.686Z,33.37
2023-03-06T13:06:11.089Z,33.04
2023-03-06T13:08:15.466Z,31.89
2023-03-06T13:10:19.801Z,29.49
2023-03-06T13:12:24.258Z,28.52
2023-03-06T13:14:28.665Z,27.77
2023-03-06T13:16:33.310Z,28.14
2023-03-06T13:18:37.749Z,28.06
2023-03-06T13:20:42.135Z,28.29
2023-03-06T13:22:46.533Z,28.31
2023-03-06T13:25:08.127Z,28.24
2023-03-06T13:27:12.720Z,27.97
2023-03-06T13:29:17.080Z,27.89
2023-03-06T13:31:29.822Z,27.94
2023-03-06T13:33:34.229Z,27.88
2023-03-06T13:35:38.723Z,27.89
2023-03-06T13:37:43.101Z,27.89
2023-03-06T13:39:47.453Z,27.92
2023-03-06T13:41:51.797Z,27.93
2023-03-06T13:43:56.185Z,27.99
2023-03-06T13:46:00.716Z,27.99
2023-03-06T13:48:46.173Z,28.09
2023-03-06T13:50:50.865Z,28.16
2023-03-06T13:52:57.119Z,28.18
2023-03-06T13:55:01.543Z,28.27
2023-03-06T13:57:06.019Z,28.39
2023-03-06T13:59:12.055Z,29.18
2023-03-06T14:01:18.394Z,29.42
2023-03-06T14:03:22.801Z,29.92
2023-03-06T14:05:27.114Z,29.99
2023-03-06T14:07:31.416Z,30.13
2023-03-06T14:09:35.786Z,30.3
2023-03-06T14:11:40.216Z,30.43
2023-03-06T14:13:49.760Z,30.65
2023-03-06T14:15:54.663Z,30.72
2023-03-06T14:17:59.138Z,30.74
2023-03-06T14:20:03.675Z,30.82
2023-03-06T14:22:08.049Z,30.83
2023-03-06T14:24:12.371Z,30.97
2023-03-06T14:26:16.748Z,31.07
2023-03-06T14:28:21.113Z,30.87
2023-03-06T14:30:27.981Z,31.13
2023-03-06T14:32:32.711Z,31.08
2023-03-06T14:34:37.052Z,31.19
2023-03-06T14:36:41.399Z,31.19
2023-03-06T14:38:45.808Z,31.37
2023-03-06T14:40:50.291Z,31.6
2023-03-06T14:42:54.632Z,31.8
2023-03-06T14:44:58.965Z,31.73
2023-03-06T14:47:03.445Z,31.49
2023-03-06T14:49:07.760Z,31.77
2023-03-06T14:51:14.636Z,31.79
2023-03-06T14:53:19.038Z,31.51
2023-03-06T14:55:23.569Z,31.87
2023-03-06T14:57:27.998Z,31.25
2023-03-06T14:59:32.337Z,31.6
2023-03-06T15:01:36.998Z,31.75
2023-03-06T15:03:41.371Z,31.72
2023-03-06T15:05:45.759Z,31.91
2023-03-06T15:07:50.148Z,31.97
2023-03-06T15:09:54.606Z,31.97
2023-03-06T15:11:58.983Z,31.95
2023-03-06T15:14:03.414Z,32.25
2023-03-06T15:16:07.988Z,32.29
2023-03-06T15:18:12.444Z,31.86
2023-03-06T15:20:16.849Z,31.12
2023-03-06T15:22:21.359Z,32.15
2023-03-06T15:24:25.731Z,32.36
2023-03-06T15:26:31.486Z,32.37
2023-03-06T15:28:35.978Z,31.1
2023-03-06T15:30:40.364Z,31.72
2023-03-06T15:32:44.978Z,32.5
2023-03-06T15:34:49.378Z,32.18
2023-03-06T15:36:53.854Z,32.01
2023-03-06T15:38:58.267Z,31.94
2023-03-06T15:41:02.613Z,32.05
2023-03-06T15:43:07.188Z,32.19
2023-03-06T15:45:11.588Z,32.06
2023-03-06T15:47:16.009Z,30.82
2023-03-06T15:49:20.416Z,31.01
2023-03-06T15:51:24.786Z,31.44
2023-03-06T15:53:29.202Z,32.24
2023-03-06T15:55:33.698Z,32.25
2023-03-06T15:57:38.084Z,32.55
2023-03-06T15:59:42.620Z,32.62
2023-03-06T16:01:47.157Z,32.82
2023-03-06T16:03:51.797Z,32.96
2023-03-06T16:05:56.145Z,32.92
2023-03-06T16:08:00.556Z,32.88
2023-03-06T16:10:05.007Z,33.3
2023-03-06T16:12:09.500Z,33.52
2023-03-06T16:14:13.923Z,33.51
2023-03-06T16:16:18.719Z,33.48
2023-03-06T16:18:23.200Z,33.32
2023-03-06T16:20:27.685Z,33.28
2023-03-06T16:22:32.097Z,33.32
2023-03-06T16:24:36.594Z,33.5
2023-03-06T16:26:41.073Z,33.47
2023-03-06T16:28:45.422Z,33.45
2023-03-06T16:30:49.932Z,33.56
2023-03-06T16:32:54.358Z,33.56
2023-03-06T16:34:58.719Z,33.68
2023-03-06T16:37:03.226Z,33.73
2023-03-06T16:39:07.603Z,33.76
2023-03-06T16:41:11.969Z,33.93
2023-03-06T16:43:16.336Z,34.31
2023-03-06T16:45:20.728Z,34.34
2023-03-06T16:47:25.062Z,34.52
2023-03-06T16:49:29.617Z,34.59
2023-03-06T16:51:33.995Z,34.28
2023-03-06T16:53:38.380Z,34.56
2023-03-06T16:55:42.867Z,34.84
2023-03-06T16:57:47.412Z,34.94
2023-03-06T16:59:51.766Z,35.08
2023-03-06T17:01:56.206Z,35.2
2023-03-06T17:04:00.616Z,34.86
2023-03-06T17:06:04.945Z,34.92
2023-03-06T17:08:09.457Z,34.99
2023-03-06T17:10:13.847Z,34.3
2023-03-06T17:12:18.326Z,32.38
2023-03-06T17:14:22.662Z,33.12
2023-03-06T17:16:27.113Z,32.63
2023-03-06T17:18:31.560Z,32.59
2023-03-06T17:20:35.990Z,33.32
2023-03-06T17:22:40.379Z,32.88
2023-03-06T17:24:44.750Z,33.57
2023-03-06T17:26:49.193Z,33.59
2023-03-06T17:28:53.622Z,33.7
2023-03-06T17:30:58.167Z,34.12
2023-03-06T17:33:02.591Z,34.3
2023-03-06T17:35:06.977Z,34.49
2023-03-06T17:37:11.502Z,34.59
2023-03-06T17:39:15.864Z,34.64
2023-03-06T17:41:20.257Z,34.56
2023-03-06T17:43:24.592Z,34.62
2023-03-06T17:45:29.049Z,34.88
2023-03-06T17:47:33.400Z,34.81
2023-03-06T17:49:37.788Z,34.77
2023-03-06T17:51:42.414Z,34.86
2023-03-06T17:53:46.884Z,34.87
2023-03-06T17:55:51.315Z,34.22
2023-03-06T17:57:55.700Z,33.91
2023-03-06T18:00:00.354Z,33.82
2023-03-06T18:02:04.964Z,33.14
2023-03-06T18:04:09.400Z,33.17
2023-03-06T18:06:13.790Z,33.12
2023-03-06T18:08:18.352Z,32.9
2023-03-06T18:10:22.689Z,32.95
2023-03-06T18:12:27.068Z,32.89
2023-03-06T18:14:31.486Z,32.9
2023-03-06T18:16:36.169Z,32.94
2023-03-06T18:18:40.603Z,32.53
2023-03-06T18:20:48.247Z,32.36
2023-03-06T18:22:52.666Z,32.42
2023-03-06T18:24:57.057Z,32.64
2023-03-06T18:27:01.513Z,32.75
2023-03-06T18:29:05.947Z,32.63
2023-03-06T18:31:10.500Z,32.09
2023-03-06T18:33:14.961Z,32.05
2023-03-06T18:35:19.646Z,31.98
2023-03-06T18:37:24.151Z,32.3
2023-03-06T18:39:28.535Z,32.05
2023-03-06T18:41:32.943Z,31.71
2023-03-06T18:43:37.376Z,31.59
2023-03-06T18:45:41.893Z,31.67
2023-03-06T18:47:46.337Z,32.09
2023-03-06T18:49:50.802Z,32.33
2023-03-06T18:51:55.207Z,32.61
2023-03-06T18:53:59.592Z,32.76
2023-03-06T18:56:03.965Z,32.89
2023-03-06T18:58:08.335Z,32.75
2023-03-06T19:00:12.695Z,32.41
2023-03-06T19:02:17.139Z,32.49
2023-03-06T19:04:21.713Z,32.17
2023-03-06T19:06:29.021Z,31.77
2023-03-06T19:08:33.356Z,32.14
2023-03-06T19:10:37.703Z,32.19
2023-03-06T19:12:42.107Z,32.2
2023-03-06T19:14:46.545Z,32.04
2023-03-06T19:16:51.180Z,32.11
2023-03-06T19:18:55.593Z,31.75
2023-03-06T19:20:59.975Z,32.28
2023-03-06T19:23:04.384Z,32.21
2023-03-06T19:25:08.916Z,32.2
2023-03-06T19:27:13.271Z,32.25
2023-03-06T19:29:17.630Z,32.26
2023-03-06T19:31:22.405Z,32.28
2023-03-06T19:33:26.812Z,32.25
2023-03-06T19:35:31.370Z,32.36
2023-03-06T19:37:35.914Z,32.28
2023-03-06T19:39:40.272Z,32.41
2023-03-06T19:41:44.668Z,32.62
2023-03-06T19:43:49.033Z,32.72
2023-03-06T19:45:53.773Z,32.76
2023-03-06T19:47:58.127Z,32.77
2023-03-06T19:50:02.556Z,32.75
2023-03-06T19:52:06.974Z,32.82
2023-03-06T19:54:11.385Z,33.01
2023-03-06T19:56:15.742Z,32.89
2023-03-06T19:58:20.328Z,33.07
2023-03-06T20:00:24.719Z,33.37
2023-03-06T20:02:29.105Z,33.36
2023-03-06T20:04:33.625Z,33.64
2023-03-06T20:06:37.990Z,33.81
2023-03-06T20:08:42.329Z,33.86
2023-03-06T20:10:46.775Z,33.99
2023-03-06T20:12:51.181Z,34.11
2023-03-06T20:14:55.513Z,34.2
2023-03-06T20:17:00.161Z,34.31
2023-03-06T20:19:04.858Z,33.8
2023-03-06T20:21:09.606Z,33.47
